Time;durP1;ratioP1;P1;durP2;ratioP2;P2;SDS_P1;SDS_P2;PMS_P1;PMS_P2;Temp;Humidity;BMP_temperature;BMP_pressure;BME280_temperature;BME280_humidity;BME280_pressure;Samples;Min_cycle;Max_cycle;Signal;HPM_P1;HPM_P2
2023/04/02 00:01:47;;;;;;;10.20;7.37;;;4.40;99.90;;;;;;5004731;28;20046;-79
2023/04/02 00:04:25;;;;;;;11.40;7.30;;;4.50;99.90;;;;;;4994154;28;20589;-79
2023/04/02 00:07:15;;;;;;;10.63;7.30;;;4.50;99.90;;;;;;5003365;28;20048;-79
2023/04/02 00:09:41;;;;;;;10.57;7.00;;;4.50;99.90;;;;;;4998289;28;20034;-79
2023/04/02 00:12:17;;;;;;;9.90;7.37;;;4.40;99.90;;;;;;4995866;28;20042;-79
2023/04/02 00:14:52;;;;;;;10.63;7.10;;;4.40;99.90;;;;;;5014944;28;20671;-79
2023/04/02 00:17:21;;;;;;;9.83;6.50;;;4.40;99.90;;;;;;4997982;28;20038;-80
2023/04/02 00:20:01;;;;;;;9.07;7.10;;;4.40;99.90;;;;;;5013323;28;20060;-80
2023/04/02 00:22:33;;;;;;;8.43;6.83;;;4.40;99.90;;;;;;4985321;28;20050;-80
2023/04/02 00:25:01;;;;;;;11.05;6.30;;;4.40;99.90;;;;;;4995014;28;20501;-80
2023/04/02 00:27:29;;;;;;;13.67;7.57;;;4.30;99.90;;;;;;4978698;28;20041;-79
2023/04/02 00:29:56;;;;;;;12.43;6.73;;;4.30;99.90;;;;;;4979579;28;20069;-78
2023/04/02 00:32:29;;;;;;;10.03;6.83;;;4.30;99.90;;;;;;5014225;28;20085;-79
2023/04/02 00:34:56;;;;;;;9.33;6.20;;;4.30;99.90;;;;;;5011102;28;20088;-79
2023/04/02 00:37:26;;;;;;;9.73;6.57;;;4.20;99.90;;;;;;4995065;28;20042;-81
2023/04/02 00:40:08;;;;;;;8.87;6.10;;;4.20;99.90;;;;;;4981323;28;20081;-79
2023/04/02 00:42:38;;;;;;;10.48;6.85;;;4.20;99.90;;;;;;4987427;28;20117;-79
2023/04/02 00:45:12;;;;;;;9.90;6.23;;;4.20;99.90;;;;;;4974588;28;20141;-78
2023/04/02 00:47:39;;;;;;;10.67;6.67;;;4.10;99.90;;;;;;4986762;28;20048;-79
2023/04/02 00:50:47;;;;;;;8.47;5.77;;;4.10;99.90;;;;;;5006158;28;20045;-78
2023/04/02 00:53:24;;;;;;;8.33;5.10;;;4.10;99.90;;;;;;4957957;28;20076;-79
2023/04/02 00:55:51;;;;;;;6.83;5.63;;;4.00;99.90;;;;;;4990561;28;20490;-79
2023/04/02 00:58:29;;;;;;;12.63;6.23;;;4.00;99.90;;;;;;4986377;28;20049;-79
2023/04/02 01:00:55;;;;;;;8.70;5.70;;;3.90;99.90;;;;;;5001853;28;20041;-79
2023/04/02 01:03:27;;;;;;;9.73;5.73;;;3.90;99.90;;;;;;5004862;28;20094;-79
2023/04/02 01:06:01;;;;;;;10.68;5.70;;;3.80;99.90;;;;;;4996858;28;20046;-79
2023/04/02 01:08:55;;;;;;;10.77;5.83;;;3.70;99.90;;;;;;5010434;28;20092;-82
2023/04/02 01:12:08;;;;;;;8.53;5.37;;;3.60;99.90;;;;;;5003576;28;20409;-78
2023/04/02 01:14:52;;;;;;;10.67;5.10;;;3.40;99.90;;;;;;4939750;28;20132;-79
2023/04/02 01:17:21;;;;;;;8.23;5.50;;;3.30;99.90;;;;;;5013578;28;20514;-79
2023/04/02 01:19:59;;;;;;;8.50;5.23;;;3.20;99.90;;;;;;4997486;28;20045;-78
2023/04/02 01:22:36;;;;;;;8.90;5.20;;;3.20;99.90;;;;;;4984711;28;20047;-79
2023/04/02 01:25:05;;;;;;;11.03;5.60;;;3.10;99.90;;;;;;4999307;28;20136;-78
2023/04/02 01:27:48;;;;;;;8.30;5.20;;;3.10;99.90;;;;;;4995636;28;20410;-78
2023/04/02 01:30:14;;;;;;;8.83;5.47;;;3.00;99.90;;;;;;5011763;28;20116;-79
2023/04/02 01:32:42;;;;;;;9.13;5.30;;;3.00;99.90;;;;;;4986360;28;20033;-78
2023/04/02 01:35:09;;;;;;;8.40;4.90;;;2.90;99.90;;;;;;4981097;28;20175;-79
2023/04/02 01:37:51;;;;;;;9.93;5.10;;;2.90;99.90;;;;;;5010655;28;20102;-79
2023/04/02 01:40:35;;;;;;;;;;;2.90;99.90;;;;;;4992653;28;20125;-79
2023/04/02 01:43:38;;;;;;;10.60;5.53;;;2.80;99.90;;;;;;4994397;28;19987;-78
2023/04/02 01:46:25;;;;;;;10.63;5.37;;;2.80;99.90;;;;;;5002274;28;20054;-80
2023/04/02 01:48:53;;;;;;;8.60;5.00;;;2.70;99.90;;;;;;5002322;28;20045;-80
2023/04/02 01:51:27;;;;;;;8.87;4.40;;;2.70;99.90;;;;;;4996493;28;20045;-78
2023/04/02 01:53:53;;;;;;;8.40;4.90;;;2.70;99.90;;;;;;5004276;28;20096;-80
2023/04/02 01:56:20;;;;;;;10.87;4.90;;;2.60;99.90;;;;;;5010131;28;20048;-78
2023/04/02 01:58:48;;;;;;;9.93;4.93;;;2.60;99.90;;;;;;4985712;28;20045;-79
2023/04/02 02:01:18;;;;;;;9.40;5.03;;;2.60;99.90;;;;;;4988043;28;20432;-80
2023/04/02 02:03:44;;;;;;;11.07;5.37;;;2.50;99.90;;;;;;5000667;28;20041;-79
2023/04/02 02:06:15;;;;;;;8.00;4.80;;;2.50;99.90;;;;;;5008127;28;20049;-79
2023/04/02 02:08:55;;;;;;;8.57;5.20;;;2.50;99.90;;;;;;5012593;28;20476;-79
2023/04/02 02:11:25;;;;;;;7.80;4.90;;;2.40;99.90;;;;;;4984408;28;20045;-79
2023/04/02 02:13:57;;;;;;;8.37;5.07;;;2.40;99.90;;;;;;5010701;28;20119;-78
2023/04/02 02:16:26;;;;;;;9.95;5.50;;;2.40;99.90;;;;;;4989636;28;20381;-78
2023/04/02 02:18:59;;;;;;;8.00;5.10;;;2.30;99.90;;;;;;4985536;28;20393;-80
2023/04/02 02:21:48;;;;;;;7.07;4.67;;;2.30;99.90;;;;;;4987854;28;20084;-79
2023/04/02 02:24:30;;;;;;;9.97;5.10;;;2.30;99.90;;;;;;4996561;28;20455;-79
2023/04/02 02:27:23;;;;;;;9.52;4.80;;;2.30;99.90;;;;;;4987082;28;20037;-79
2023/04/02 02:30:09;;;;;;;7.63;4.40;;;2.20;99.90;;;;;;4981243;28;20140;-79
2023/04/02 02:32:41;;;;;;;7.03;4.70;;;2.20;99.90;;;;;;4975470;28;20051;-78
2023/04/02 02:35:15;;;;;;;10.20;4.70;;;2.10;99.90;;;;;;4986580;28;20457;-79
2023/04/02 02:37:45;;;;;;;9.87;4.87;;;2.10;99.90;;;;;;4997260;28;20409;-80
2023/04/02 02:40:29;;;;;;;7.50;4.47;;;2.10;99.90;;;;;;4998425;28;20045;-78
2023/04/02 02:42:59;;;;;;;13.17;4.67;;;2.10;99.90;;;;;;5016031;28;20377;-78
2023/04/02 02:45:28;;;;;;;7.93;4.60;;;2.10;99.90;;;;;;5002210;28;20096;-79
2023/04/02 02:47:55;;;;;;;8.27;4.03;;;2.00;99.90;;;;;;5009370;28;20038;-78
2023/04/02 02:50:26;;;;;;;8.53;3.83;;;2.00;99.90;;;;;;4996593;28;20042;-79
2023/04/02 02:52:56;;;;;;;6.20;3.95;;;2.00;99.90;;;;;;4998889;28;20037;-79
2023/04/02 02:55:26;;;;;;;5.53;4.23;;;1.90;99.90;;;;;;4999408;28;20378;-79
2023/04/02 02:58:14;;;;;;;8.00;3.73;;;1.90;99.90;;;;;;5003135;28;20104;-78
2023/04/02 03:00:42;;;;;;;8.53;4.03;;;1.90;99.90;;;;;;5009224;28;20045;-78
2023/04/02 03:03:18;;;;;;;6.80;3.70;;;2.00;99.90;;;;;;4978253;28;20416;-78
2023/04/02 03:05:48;;;;;;;8.70;3.90;;;2.00;99.90;;;;;;5004098;28;20073;-78
2023/04/02 03:08:23;;;;;;;7.23;3.40;;;2.00;99.90;;;;;;4995851;28;20402;-79
2023/04/02 03:10:57;;;;;;;6.83;3.47;;;2.00;99.90;;;;;;5011469;28;20057;-78
2023/04/02 03:13:34;;;;;;;7.20;3.43;;;2.00;99.90;;;;;;4992339;28;20437;-80
2023/04/02 03:16:10;;;;;;;8.20;4.07;;;2.00;99.90;;;;;;5014199;28;20052;-79
2023/04/02 03:18:45;;;;;;;4.87;3.43;;;2.00;99.90;;;;;;4993505;28;20045;-79
2023/04/02 03:21:29;;;;;;;6.83;3.77;;;2.00;99.90;;;;;;5010054;28;20046;-79
2023/04/02 03:24:25;;;;;;;6.73;3.60;;;2.10;99.90;;;;;;4980485;28;20547;-79
2023/04/02 03:27:14;;;;;;;9.50;3.77;;;2.00;99.90;;;;;;4971464;28;20057;-79
2023/04/02 03:29:50;;;;;;;9.43;4.10;;;2.10;99.90;;;;;;5015244;28;20095;-80
2023/04/02 03:32:21;;;;;;;8.37;4.40;;;2.00;99.90;;;;;;4998349;28;20037;-78
2023/04/02 03:35:01;;;;;;;11.27;3.63;;;2.10;99.90;;;;;;4987969;28;20056;-77
2023/04/02 03:37:35;;;;;;;8.07;4.00;;;2.10;99.90;;;;;;4984687;28;20259;-79
2023/04/02 03:40:07;;;;;;;6.20;3.63;;;2.10;99.90;;;;;;5014596;28;20045;-81
2023/04/02 03:42:40;;;;;;;7.05;3.70;;;2.10;99.90;;;;;;5015214;28;20500;-79
2023/04/02 03:45:15;;;;;;;8.43;3.63;;;2.10;99.90;;;;;;4984423;28;20050;-79
2023/04/02 03:47:56;;;;;;;6.73;3.20;;;2.10;99.90;;;;;;5029710;28;20052;-79
2023/04/02 03:50:36;;;;;;;8.07;3.50;;;2.10;99.90;;;;;;4998448;28;20132;-80
2023/04/02 03:53:03;;;;;;;10.07;3.30;;;2.10;99.90;;;;;;5015301;28;20477;-80
2023/04/02 03:55:32;;;;;;;5.33;3.10;;;2.10;99.90;;;;;;4989422;28;20092;-80
2023/04/02 03:58:01;;;;;;;5.80;3.20;;;2.10;99.90;;;;;;4998434;28;20049;-79
2023/04/02 04:00:58;;;;;;;6.73;3.17;;;2.00;99.90;;;;;;5002412;28;20053;-79
2023/04/02 04:03:50;;;;;;;6.47;2.90;;;2.10;99.90;;;;;;5006828;28;20037;-79
2023/04/02 04:06:27;;;;;;;7.40;2.85;;;2.10;99.90;;;;;;4995692;28;20093;-78
2023/04/02 04:09:23;;;;;;;5.67;2.50;;;2.00;99.90;;;;;;5013054;28;20049;-79
2023/04/02 04:11:53;;;;;;;5.70;2.73;;;2.00;99.90;;;;;;4990552;28;20396;-79
2023/04/02 04:14:34;;;;;;;6.57;2.70;;;2.00;99.90;;;;;;5001639;28;20116;-78
2023/04/02 04:17:14;;;;;;;5.80;2.70;;;1.90;99.90;;;;;;4971225;28;20049;-78
2023/04/02 04:19:53;;;;;;;6.63;2.70;;;1.90;99.90;;;;;;4990045;28;20045;-79
2023/04/02 04:22:32;;;;;;;4.67;2.77;;;1.90;99.90;;;;;;5009140;28;20052;-78
2023/04/02 04:25:24;;;;;;;5.20;2.53;;;1.80;99.90;;;;;;5013732;28;20080;-78
2023/04/02 04:28:04;;;;;;;5.10;2.75;;;1.80;99.90;;;;;;4998785;28;20069;-79
2023/04/02 04:30:44;;;;;;;6.23;2.57;;;1.70;99.90;;;;;;5000004;28;20113;-78
2023/04/02 04:33:38;;;;;;;3.73;1.93;;;1.70;99.90;;;;;;4993560;28;20042;-78
2023/04/02 04:36:18;;;;;;;4.63;2.20;;;1.70;99.90;;;;;;5008108;28;20077;-78
2023/04/02 04:38:54;;;;;;;7.67;3.00;;;1.70;99.90;;;;;;5008178;28;20042;-78
2023/04/02 04:41:44;;;;;;;5.37;2.13;;;1.60;99.90;;;;;;5006393;28;20120;-80
2023/04/02 04:44:22;;;;;;;4.47;2.30;;;1.50;99.90;;;;;;4977737;28;20054;-80
2023/04/02 04:47:04;;;;;;;6.50;2.60;;;1.50;99.90;;;;;;5007146;28;20066;-80
2023/04/02 04:49:42;;;;;;;3.97;2.20;;;1.50;99.90;;;;;;5000000;28;20038;-79
2023/04/02 04:52:20;;;;;;;4.73;2.53;;;1.40;99.90;;;;;;5011118;28;20042;-79
2023/04/02 04:54:46;;;;;;;9.80;2.90;;;1.40;99.90;;;;;;4995414;28;20129;-80
2023/04/02 04:57:34;;;;;;;6.77;2.37;;;1.40;99.90;;;;;;4994213;28;20128;-79
2023/04/02 05:00:14;;;;;;;6.17;2.30;;;1.50;99.90;;;;;;5009569;28;20537;-80
2023/04/02 05:02:47;;;;;;;6.47;2.10;;;1.40;99.90;;;;;;4980244;28;20034;-80
2023/04/02 05:05:20;;;;;;;5.50;2.33;;;1.40;99.90;;;;;;4980076;28;20042;-80
2023/04/02 05:07:54;;;;;;;6.27;2.57;;;1.40;99.90;;;;;;5009871;28;20477;-79
2023/04/02 05:11:19;;;;;;;4.83;2.30;;;1.30;99.90;;;;;;4990545;28;20128;-80
2023/04/02 05:14:01;;;;;;;5.73;2.17;;;1.30;99.90;;;;;;4929981;29;20495;-80
2023/04/02 05:16:40;;;;;;;4.32;2.13;;;1.30;99.90;;;;;;4924861;29;20043;-80
2023/04/02 05:19:09;;;;;;;3.73;2.27;;;1.30;99.90;;;;;;4983207;28;20061;-80
2023/04/02 05:21:48;;;;;;;5.50;2.47;;;1.30;99.90;;;;;;5008126;28;20045;-80
2023/04/02 05:24:39;;;;;;;7.60;2.30;;;1.30;99.90;;;;;;4990527;28;20042;-80
2023/04/02 05:27:28;;;;;;;4.10;2.20;;;1.30;99.90;;;;;;5007314;28;20084;-80
2023/04/02 05:30:08;;;;;;;4.93;1.97;;;1.30;99.90;;;;;;4969417;28;20051;-79
2023/04/02 05:32:40;;;;;;;4.03;1.93;;;1.30;99.90;;;;;;4990795;28;20121;-80
2023/04/02 05:35:06;;;;;;;;;;;1.20;99.90;;;;;;4997624;28;20042;-82
2023/04/02 05:37:33;;;;;;;3.13;1.90;;;1.20;99.90;;;;;;5008765;28;19947;-80
2023/04/02 05:40:12;;;;;;;6.63;2.30;;;1.20;99.90;;;;;;4990949;28;20044;-80
2023/04/02 05:42:42;;;;;;;4.43;1.97;;;1.30;99.90;;;;;;4999303;28;20042;-79
2023/04/02 05:45:26;;;;;;;6.00;2.33;;;1.30;99.90;;;;;;5006363;28;20058;-80
2023/04/02 05:48:00;;;;;;;4.83;2.13;;;1.30;99.90;;;;;;4987919;28;20038;-80
2023/04/02 05:50:29;;;;;;;11.80;2.50;;;1.40;99.90;;;;;;5003467;28;20038;-79
2023/04/02 05:53:02;;;;;;;5.70;2.07;;;1.40;99.90;;;;;;5003098;28;20044;-81
2023/04/02 05:55:37;;;;;;;6.40;2.10;;;1.50;99.90;;;;;;5004320;28;20069;-80
2023/04/02 05:58:32;;;;;;;6.13;2.90;;;1.50;99.90;;;;;;5003291;28;20034;-80
2023/04/02 06:01:06;;;;;;;5.07;2.00;;;1.50;99.90;;;;;;4991101;28;20046;-79
2023/04/02 06:03:59;;;;;;;4.10;2.00;;;1.50;99.90;;;;;;4987203;28;20107;-80
2023/04/02 06:06:46;;;;;;;5.37;2.10;;;1.60;99.90;;;;;;4986978;28;20061;-80
2023/04/02 06:09:24;;;;;;;4.83;2.07;;;1.60;99.90;;;;;;5006212;28;20485;-80
2023/04/02 06:12:34;;;;;;;5.27;2.27;;;1.70;99.90;;;;;;4992477;28;20037;-80
2023/04/02 06:15:00;;;;;;;8.40;2.30;;;1.70;99.90;;;;;;4960424;28;20049;-80
2023/04/02 06:17:26;;;;;;;6.23;2.97;;;1.80;99.90;;;;;;5008493;28;20034;-82
2023/04/02 06:19:55;;;;;;;7.70;1.90;;;1.80;99.90;;;;;;4995912;28;20034;-81
2023/04/02 06:22:31;;;;;;;6.47;2.37;;;1.90;99.90;;;;;;5000654;28;20073;-80
2023/04/02 06:25:22;;;;;;;6.93;2.13;;;1.90;99.90;;;;;;5013397;28;20046;-80
2023/04/02 06:27:50;;;;;;;6.00;1.90;;;2.00;99.90;;;;;;5002873;28;20509;-80
2023/04/02 06:30:29;;;;;;;7.10;2.23;;;2.00;99.90;;;;;;5012930;28;20084;-80
2023/04/02 06:32:54;;;;;;;5.93;2.27;;;2.10;99.90;;;;;;4988090;28;20045;-83
2023/04/02 06:35:20;;;;;;;6.13;2.23;;;2.10;99.90;;;;;;4985714;28;20045;-81
2023/04/02 06:37:50;;;;;;;5.30;1.77;;;2.20;99.90;;;;;;4976761;28;20034;-81
2023/04/02 06:40:40;;;;;;;6.77;2.00;;;2.30;99.90;;;;;;4982155;28;20084;-81
2023/04/02 06:43:27;;;;;;;5.83;2.03;;;2.40;99.90;;;;;;4984636;28;20069;-82
2023/04/02 06:45:56;;;;;;;6.03;1.73;;;2.40;99.90;;;;;;4987794;28;20073;-81
2023/04/02 06:48:24;;;;;;;6.27;1.80;;;2.50;99.90;;;;;;5010778;28;20388;-81
2023/04/02 06:51:04;;;;;;;7.70;2.10;;;2.50;99.90;;;;;;4997166;28;20046;-81
2023/04/02 06:53:37;;;;;;;4.83;2.10;;;2.60;99.90;;;;;;4986253;28;20399;-82
2023/04/02 06:56:03;;;;;;;6.87;1.90;;;2.60;99.90;;;;;;4986763;28;20494;-82
2023/04/02 06:58:28;;;;;;;4.10;1.80;;;2.70;99.90;;;;;;4982701;28;20126;-81
2023/04/02 07:00:55;;;;;;;4.37;2.00;;;2.70;99.90;;;;;;4993979;28;20038;-83
2023/04/02 07:03:31;;;;;;;4.87;2.10;;;2.80;99.90;;;;;;5002680;28;20049;-81
2023/04/02 07:06:00;;;;;;;7.50;1.77;;;2.80;99.90;;;;;;5006707;28;20047;-84
2023/04/02 07:08:26;;;;;;;5.70;1.90;;;2.90;99.90;;;;;;4990344;28;20034;-80
2023/04/02 07:10:52;;;;;;;3.67;1.70;;;2.90;99.90;;;;;;4979360;28;20040;-80
2023/04/02 07:13:20;;;;;;;4.90;1.80;;;2.90;99.90;;;;;;4992246;28;20398;-80
2023/04/02 07:15:49;;;;;;;7.87;2.03;;;3.00;99.90;;;;;;5002519;28;20457;-81
2023/04/02 07:18:32;;;;;;;3.97;1.90;;;3.10;99.90;;;;;;5006378;28;20050;-81
2023/04/02 07:20:59;;;;;;;4.30;1.67;;;3.10;99.90;;;;;;4995164;28;20045;-83
2023/04/02 07:23:30;;;;;;;4.07;1.87;;;3.20;99.90;;;;;;5002190;28;20394;-80
2023/04/02 07:25:57;;;;;;;6.07;2.17;;;3.20;99.90;;;;;;4974975;28;20834;-81
2023/04/02 07:28:23;;;;;;;3.43;1.70;;;3.30;99.90;;;;;;4992767;28;20049;-81
2023/04/02 07:30:50;;;;;;;5.63;1.63;;;3.30;99.90;;;;;;4976802;28;20081;-81
2023/04/02 07:33:20;;;;;;;7.20;2.17;;;3.40;99.90;;;;;;5002103;28;20626;-81
2023/04/02 07:35:47;;;;;;;4.43;1.60;;;3.40;99.90;;;;;;4979395;28;20044;-81
2023/04/02 07:38:13;;;;;;;4.73;2.00;;;3.40;99.90;;;;;;4995819;28;20050;-81
2023/04/02 07:40:38;;;;;;;4.70;1.87;;;3.40;99.90;;;;;;5012359;28;20099;-83
2023/04/02 07:43:05;;;;;;;6.50;1.70;;;3.50;99.90;;;;;;4964266;28;20038;-80
2023/04/02 07:45:31;;;;;;;5.93;2.43;;;3.50;99.90;;;;;;5001862;28;20490;-80
2023/04/02 07:48:02;;;;;;;6.77;2.03;;;3.60;99.90;;;;;;4994352;28;20036;-79
2023/04/02 07:50:29;;;;;;;4.90;2.50;;;3.70;99.90;;;;;;4977165;28;20486;-80
2023/04/02 07:52:55;;;;;;;6.40;1.97;;;3.60;99.90;;;;;;5000791;28;20082;-84
2023/04/02 07:55:20;;;;;;;3.97;1.90;;;3.60;99.90;;;;;;4960522;28;20104;-80
2023/04/02 07:57:49;;;;;;;3.10;1.77;;;3.60;99.90;;;;;;4992405;28;20169;-81
2023/04/02 08:00:16;;;;;;;7.17;2.10;;;3.70;99.90;;;;;;4980025;28;20050;-82
2023/04/02 08:02:42;;;;;;;5.03;2.10;;;3.70;99.90;;;;;;4987464;28;20068;-79
2023/04/02 08:05:09;;;;;;;4.47;2.13;;;3.80;99.90;;;;;;5005141;28;20049;-80
2023/04/02 08:07:35;;;;;;;4.07;1.80;;;3.80;99.90;;;;;;4993753;28;20135;-81
2023/04/02 08:10:02;;;;;;;6.27;1.93;;;3.90;99.90;;;;;;4976719;28;20046;-81
2023/04/02 08:12:28;;;;;;;7.23;2.10;;;4.00;99.90;;;;;;5000516;28;20046;-81
2023/04/02 08:14:53;;;;;;;3.90;1.87;;;4.10;99.90;;;;;;4976159;28;20758;-79
2023/04/02 08:17:20;;;;;;;3.77;1.80;;;4.10;99.90;;;;;;4961174;28;20042;-80
2023/04/02 08:19:46;;;;;;;4.17;1.87;;;4.10;99.90;;;;;;4992377;28;20042;-82
2023/04/02 08:22:12;;;;;;;5.53;1.77;;;4.20;99.90;;;;;;4973456;28;20049;-79
2023/04/02 08:24:37;;;;;;;2.77;1.63;;;4.40;99.90;;;;;;4988523;28;20043;-81
2023/04/02 08:27:03;;;;;;;6.63;1.97;;;4.60;99.90;;;;;;5001482;28;20038;-83
2023/04/02 08:29:31;;;;;;;4.23;1.70;;;4.80;99.90;;;;;;4983958;28;20045;-80
2023/04/02 08:32:00;;;;;;;4.27;1.80;;;4.90;99.90;;;;;;4999049;28;20034;-82
2023/04/02 08:34:27;;;;;;;5.50;2.00;;;5.00;99.90;;;;;;4994261;28;20046;-79
2023/04/02 08:36:56;;;;;;;6.67;2.27;;;5.10;99.90;;;;;;4996170;28;20045;-80
2023/04/02 08:39:24;;;;;;;5.23;1.63;;;5.20;99.90;;;;;;5005372;28;20390;-79
2023/04/02 08:42:33;;;;;;;5.93;1.67;;;5.20;99.90;;;;;;5001126;28;20124;-82
2023/04/02 08:45:20;;;;;;;5.93;2.17;;;5.30;99.90;;;;;;5002580;28;20077;-83
2023/04/02 08:47:49;;;;;;;6.17;2.00;;;5.40;99.90;;;;;;4998425;28;20394;-80
2023/04/02 08:50:15;;;;;;;5.87;1.83;;;5.30;99.90;;;;;;5007053;28;20610;-79
2023/04/02 08:52:41;;;;;;;3.57;1.70;;;5.30;99.90;;;;;;4991663;28;20056;-79
2023/04/02 08:55:26;;;;;;;4.77;1.80;;;5.30;99.90;;;;;;4985505;28;20073;-80
2023/04/02 08:57:52;;;;;;;5.10;1.67;;;5.40;99.90;;;;;;4990307;28;20119;-79
2023/04/02 09:00:19;;;;;;;6.27;1.80;;;5.50;99.90;;;;;;4998889;28;20132;-79
2023/04/02 09:03:01;;;;;;;2.83;1.30;;;5.70;99.90;;;;;;5001590;28;20053;-81
2023/04/02 09:05:30;;;;;;;7.50;1.63;;;5.60;99.90;;;;;;4989465;28;20061;-79
2023/04/02 09:08:00;;;;;;;5.90;1.90;;;5.50;99.90;;;;;;4991014;28;20562;-81
2023/04/02 09:10:38;;;;;;;3.63;1.60;;;5.30;99.90;;;;;;4996910;28;20156;-78
2023/04/02 09:13:17;;;;;;;6.27;2.43;;;5.30;99.90;;;;;;4999778;28;20065;-80
2023/04/02 09:15:43;;;;;;;4.27;1.83;;;5.50;99.90;;;;;;4998085;28;20494;-80
2023/04/02 09:18:17;;;;;;;5.40;1.67;;;5.60;99.90;;;;;;4983578;28;20076;-79
2023/04/02 09:20:43;;;;;;;6.37;2.00;;;5.70;99.90;;;;;;4982676;28;20073;-78
2023/04/02 09:23:36;;;;;;;4.83;1.83;;;5.70;99.90;;;;;;4981823;28;20042;-80
2023/04/02 09:26:01;;;;;;;3.95;1.85;;;5.70;99.90;;;;;;4991483;28;20046;-79
2023/04/02 09:28:27;;;;;;;4.77;1.70;;;5.80;99.90;;;;;;4989564;28;20461;-80
2023/04/02 09:30:52;;;;;;;4.17;1.70;;;5.80;99.90;;;;;;4972075;28;20080;-80
2023/04/02 09:33:18;;;;;;;4.77;1.80;;;5.70;99.90;;;;;;4997153;28;20035;-80
2023/04/02 09:35:50;;;;;;;3.90;1.73;;;5.70;99.90;;;;;;4984391;28;20046;-79
2023/04/02 09:38:21;;;;;;;4.07;1.88;;;5.80;99.90;;;;;;5002847;28;20033;-79
2023/04/02 09:40:58;;;;;;;5.10;1.63;;;5.80;99.90;;;;;;5005269;28;20045;-80
2023/04/02 09:43:31;;;;;;;5.10;1.60;;;6.00;99.90;;;;;;5006279;28;20045;-80
2023/04/02 09:45:59;;;;;;;3.63;1.70;;;6.10;99.90;;;;;;4953086;28;1131807;-79
2023/04/02 09:48:33;;;;;;;4.33;1.80;;;6.10;99.90;;;;;;4990740;28;20058;-79
2023/04/02 09:51:20;;;;;;;3.67;1.63;;;6.10;99.90;;;;;;4998705;28;20049;-84
2023/04/02 09:54:01;;;;;;;4.00;1.80;;;6.20;99.90;;;;;;5009611;28;20050;-80
2023/04/02 09:56:32;;;;;;;6.20;1.53;;;6.30;99.90;;;;;;5009590;28;20454;-82
2023/04/02 09:59:20;;;;;;;4.63;1.70;;;6.40;99.90;;;;;;5001202;28;20052;-80
2023/04/02 10:01:52;;;;;;;5.60;1.60;;;6.50;99.90;;;;;;5008540;28;20108;-80
2023/04/02 10:04:38;;;;;;;4.43;1.80;;;6.60;99.90;;;;;;4994450;28;20046;-80
2023/04/02 10:07:08;;;;;;;2.60;1.30;;;6.90;99.90;;;;;;5003660;28;20034;-82
2023/04/02 10:09:36;;;;;;;4.13;1.50;;;7.00;99.90;;;;;;4978293;28;20125;-79
2023/04/02 10:12:05;;;;;;;4.93;1.50;;;7.10;99.90;;;;;;5008668;28;20045;-80
2023/04/02 10:14:44;;;;;;;4.10;2.10;;;7.20;99.90;;;;;;4996044;28;20121;-79
2023/04/02 10:17:16;;;;;;;2.87;1.27;;;7.20;99.90;;;;;;4996510;28;20093;-80
2023/04/02 10:19:47;;;;;;;3.65;1.70;;;7.30;99.90;;;;;;5008587;28;20042;-80
2023/04/02 10:22:20;;;;;;;3.13;1.23;;;7.20;99.90;;;;;;4997630;28;20058;-79
2023/04/02 10:24:46;;;;;;;3.90;1.50;;;7.20;99.90;;;;;;4982495;28;20498;-80
2023/04/02 10:27:38;;;;;;;3.47;1.67;;;7.30;99.90;;;;;;4995475;28;20151;-80
2023/04/02 10:30:22;;;;;;;2.92;1.27;;;7.40;99.90;;;;;;4997163;28;20041;-80
2023/04/02 10:32:58;;;;;;;5.10;1.47;;;7.30;99.90;;;;;;4995423;28;20121;-82
2023/04/02 10:35:36;;;;;;;5.50;1.70;;;7.30;99.90;;;;;;4993693;28;20053;-81
2023/04/02 10:38:13;;;;;;;5.73;1.50;;;7.50;99.90;;;;;;5008761;28;20042;-81
2023/04/02 10:40:46;;;;;;;3.47;1.23;;;7.50;99.90;;;;;;4974029;28;20042;-79
2023/04/02 10:43:52;;;;;;;1.80;1.30;;;7.70;99.90;;;;;;4980266;28;20041;-80
2023/04/02 10:46:26;;;;;;;5.70;1.17;;;7.70;99.90;;;;;;4994991;28;20097;-79
2023/04/02 10:49:20;;;;;;;4.37;1.50;;;7.70;99.90;;;;;;5002546;28;20380;-80
2023/04/02 10:52:15;;;;;;;3.23;1.43;;;7.60;99.90;;;;;;5005951;28;20571;-80
2023/04/02 10:54:53;;;;;;;2.70;1.60;;;7.50;99.90;;;;;;4992403;28;20047;-81
2023/04/02 10:57:24;;;;;;;3.70;1.63;;;7.60;99.90;;;;;;4994387;28;20422;-81
2023/04/02 11:00:04;;;;;;;10.32;2.20;;;7.60;99.90;;;;;;5009235;28;20050;-80
2023/04/02 11:03:06;;;;;;;2.67;1.37;;;7.60;99.90;;;;;;5008309;28;20092;-82
2023/04/02 11:05:52;;;;;;;3.83;1.30;;;7.70;99.90;;;;;;4985508;28;20049;-81
2023/04/02 11:08:41;;;;;;;4.40;1.50;;;7.70;99.90;;;;;;4999469;28;20080;-82
2023/04/02 11:11:15;;;;;;;2.33;1.57;;;7.80;99.90;;;;;;5003592;28;20038;-80
2023/04/02 11:13:58;;;;;;;3.90;1.20;;;7.90;99.90;;;;;;4991649;28;20034;-80
2023/04/02 11:16:26;;;;;;;3.90;1.50;;;8.10;99.90;;;;;;4990847;28;20116;-79
2023/04/02 11:19:13;;;;;;;2.90;1.40;;;8.40;99.90;;;;;;4987731;28;20038;-80
2023/04/02 11:22:15;;;;;;;4.13;1.57;;;8.40;99.90;;;;;;5007934;28;20054;-80
2023/04/02 11:24:49;;;;;;;6.37;1.60;;;8.30;99.90;;;;;;4975578;28;20054;-80
2023/04/02 11:27:28;;;;;;;3.23;1.23;;;8.30;99.90;;;;;;5009233;28;20121;-80
2023/04/02 11:30:12;;;;;;;2.93;1.40;;;8.10;99.90;;;;;;5007117;28;20055;-81
2023/04/02 11:32:41;;;;;;;2.57;1.40;;;8.20;99.90;;;;;;4997148;28;20045;-79
2023/04/02 11:35:31;;;;;;;4.10;1.40;;;8.10;99.90;;;;;;4990440;28;20048;-80
2023/04/02 11:38:18;;;;;;;4.97;1.40;;;8.30;99.90;;;;;;5004452;28;20042;-79
2023/04/02 11:40:50;;;;;;;2.80;1.43;;;8.50;99.90;;;;;;5011134;28;20772;-82
2023/04/02 11:43:35;;;;;;;3.83;1.20;;;8.50;99.90;;;;;;5000806;28;20157;-80
2023/04/02 11:46:40;;;;;;;3.37;1.43;;;8.70;99.90;;;;;;5007305;28;20049;-80
2023/04/02 11:49:31;;;;;;;5.83;1.50;;;9.00;99.90;;;;;;4998869;28;20073;-80
2023/04/02 11:51:56;;;;;;;3.73;1.30;;;9.20;99.90;;;;;;4989657;28;20085;-81
2023/04/02 11:54:29;;;;;;;2.83;1.30;;;9.30;99.90;;;;;;5001962;28;20431;-80
2023/04/02 11:57:19;;;;;;;4.17;1.50;;;9.20;99.90;;;;;;4991320;28;20129;-80
2023/04/02 12:00:00;;;;;;;2.80;1.33;;;9.40;99.90;;;;;;4996640;28;20096;-83
2023/04/02 12:03:07;;;;;;;4.23;1.53;;;9.50;99.90;;;;;;4988582;28;20065;-80
2023/04/02 12:05:53;;;;;;;4.73;1.17;;;9.30;99.90;;;;;;4984479;28;20072;-81
2023/04/02 12:08:21;;;;;;;2.87;1.30;;;8.90;99.90;;;;;;5010657;28;20041;-81
2023/04/02 12:10:55;;;;;;;3.50;1.30;;;8.70;99.90;;;;;;5010138;28;20048;-80
2023/04/02 12:13:41;;;;;;;2.90;1.30;;;8.70;99.90;;;;;;4986249;28;20029;-82
2023/04/02 12:16:08;;;;;;;4.30;1.47;;;8.70;99.90;;;;;;4998164;28;20046;-80
2023/04/02 12:18:34;;;;;;;2.93;1.57;;;8.50;99.90;;;;;;5001675;28;20053;-80
2023/04/02 12:21:01;;;;;;;3.13;1.20;;;8.70;99.90;;;;;;4998643;28;20084;-81
2023/04/02 12:23:31;;;;;;;2.67;1.27;;;9.00;99.90;;;;;;5008226;28;20624;-81
2023/04/02 12:26:07;;;;;;;3.47;1.33;;;9.10;99.90;;;;;;5010632;28;20048;-80
2023/04/02 12:28:33;;;;;;;3.40;1.23;;;9.40;99.90;;;;;;4993242;28;20077;-79
2023/04/02 12:31:07;;;;;;;3.33;1.50;;;9.60;99.90;;;;;;5003183;28;20111;-80
2023/04/02 12:33:36;;;;;;;2.23;1.13;;;9.90;99.90;;;;;;4997881;28;20037;-80
2023/04/02 12:36:05;;;;;;;2.60;1.43;;;10.00;99.90;;;;;;4971130;28;20038;-80
2023/04/02 12:38:43;;;;;;;3.37;1.17;;;10.20;99.90;;;;;;4988350;28;20041;-80
2023/04/02 12:41:23;;;;;;;3.07;1.40;;;9.80;99.90;;;;;;4988207;28;20049;-80
2023/04/02 12:44:00;;;;;;;2.07;1.13;;;9.50;99.90;;;;;;4981413;28;20038;-85
2023/04/02 12:46:28;;;;;;;2.70;1.30;;;9.40;99.90;;;;;;4992190;28;20038;-84
2023/04/02 12:48:59;;;;;;;2.50;1.40;;;9.50;99.90;;;;;;5003435;28;20054;-85
2023/04/02 12:51:26;;;;;;;4.53;1.30;;;9.50;99.90;;;;;;4988811;28;20093;-86
2023/04/02 12:53:52;;;;;;;4.40;1.40;;;9.80;99.90;;;;;;5011902;28;20281;-84
2023/04/02 12:56:22;;;;;;;1.97;1.30;;;9.80;99.90;;;;;;5001131;28;20042;-85
2023/04/02 12:58:54;;;;;;;2.67;1.30;;;9.80;99.90;;;;;;4986441;28;20152;-83
2023/04/02 13:01:28;;;;;;;2.80;1.17;;;9.90;99.90;;;;;;4992545;28;20077;-85
2023/04/02 13:04:11;;;;;;;2.43;1.60;;;9.80;99.90;;;;;;5008690;28;20045;-85
2023/04/02 13:06:38;;;;;;;3.60;1.27;;;9.80;99.90;;;;;;5011509;28;20100;-83
2023/04/02 13:09:26;;;;;;;3.13;1.43;;;9.90;99.90;;;;;;5002452;28;20038;-85
2023/04/02 13:11:52;;;;;;;4.40;1.30;;;10.00;99.90;;;;;;5011337;28;20524;-83
2023/04/02 13:14:20;;;;;;;3.43;1.33;;;10.00;99.90;;;;;;4985329;28;20069;-83
2023/04/02 13:16:47;;;;;;;2.20;1.50;;;10.00;99.90;;;;;;4976884;28;20168;-82
2023/04/02 13:19:21;;;;;;;3.23;1.20;;;9.90;99.90;;;;;;5008740;28;20057;-81
2023/04/02 13:21:47;;;;;;;3.93;1.57;;;9.80;99.90;;;;;;4977308;28;20173;-83
2023/04/02 13:24:17;;;;;;;1.80;1.10;;;9.70;99.90;;;;;;4943394;28;20125;-83
2023/04/02 13:26:43;;;;;;;2.77;1.07;;;9.50;99.90;;;;;;4975452;28;20053;-84
2023/04/02 13:29:37;;;;;;;2.63;1.30;;;9.60;99.90;;;;;;4991394;28;20038;-84
2023/04/02 13:32:06;;;;;;;2.80;1.10;;;9.80;99.90;;;;;;4978009;28;20045;-83
2023/04/02 13:34:32;;;;;;;2.63;1.30;;;9.90;99.90;;;;;;5003201;28;20042;-84
2023/04/02 13:36:58;;;;;;;2.50;1.30;;;10.00;99.90;;;;;;4975254;28;20085;-84
2023/04/02 13:39:24;;;;;;;4.87;1.20;;;10.20;99.90;;;;;;4991796;28;20084;-84